Time;durP1;ratioP1;P1;durP2;ratioP2;P2;SDS_P1;SDS_P2;PMS_P1;PMS_P2;Temp;Humidity;BMP_temperature;BMP_pressure;BME280_temperature;BME280_humidity;BME280_pressure;Samples;Min_cycle;Max_cycle;Signal;HPM_P1;HPM_P2
2023/09/16 00:00:08;;;;;;;11.40;8.00;;;12.90;99.90;;;;;;5028845;28;20204;-76
2023/09/16 00:02:35;;;;;;;13.35;9.00;;;13.10;99.90;;;;;;5029345;28;20269;-77
2023/09/16 00:05:04;;;;;;;10.00;7.47;;;13.00;99.90;;;;;;5027043;28;20220;-77
2023/09/16 00:07:31;;;;;;;8.80;6.43;;;12.90;99.90;;;;;;5028741;28;20204;-77
2023/09/16 00:09:58;;;;;;;8.35;6.30;;;12.70;99.90;;;;;;5034636;28;20207;-77
2023/09/16 00:12:25;;;;;;;12.60;8.63;;;12.50;99.90;;;;;;5027086;28;20231;-77
2023/09/16 00:14:52;;;;;;;10.20;7.97;;;12.30;99.90;;;;;;5023318;28;20208;-78
2023/09/16 00:17:19;;;;;;;9.98;7.70;;;12.30;99.90;;;;;;5027850;28;20223;-77
2023/09/16 00:19:46;;;;;;;9.77;6.83;;;12.30;99.90;;;;;;5032418;28;20207;-78
2023/09/16 00:22:14;;;;;;;10.33;7.67;;;12.30;99.90;;;;;;5029217;28;20193;-77
2023/09/16 00:24:42;;;;;;;10.03;7.60;;;12.20;99.90;;;;;;5030854;28;20224;-77
2023/09/16 00:27:08;;;;;;;10.80;7.43;;;12.30;99.90;;;;;;5028652;28;20203;-76
2023/09/16 00:29:35;;;;;;;10.53;7.50;;;12.50;99.90;;;;;;5024214;28;20235;-78
2023/09/16 00:32:04;;;;;;;9.77;7.10;;;12.60;99.90;;;;;;5025689;28;20236;-77
2023/09/16 00:34:30;;;;;;;7.70;6.23;;;12.60;99.90;;;;;;5027285;28;20222;-78
2023/09/16 00:36:57;;;;;;;8.80;6.73;;;12.50;99.90;;;;;;5023053;28;20298;-78
2023/09/16 00:39:26;;;;;;;9.50;7.00;;;12.50;99.90;;;;;;5028066;28;20196;-77
2023/09/16 00:41:53;;;;;;;9.90;7.77;;;12.60;99.90;;;;;;5026638;28;20207;-77
2023/09/16 00:44:20;;;;;;;10.73;7.63;;;12.70;99.90;;;;;;5024868;28;20231;-78
2023/09/16 00:46:47;;;;;;;10.73;7.90;;;12.70;99.90;;;;;;5022781;28;20208;-76
2023/09/16 00:49:14;;;;;;;14.50;8.10;;;12.80;99.90;;;;;;5026027;28;20682;-76
2023/09/16 00:51:44;;;;;;;9.50;7.87;;;12.80;99.90;;;;;;5022827;28;20235;-78
2023/09/16 00:54:12;;;;;;;12.23;8.83;;;12.70;99.90;;;;;;5026703;28;20648;-77
2023/09/16 00:56:40;;;;;;;13.57;9.80;;;12.80;99.90;;;;;;5026936;28;20672;-76
2023/09/16 00:59:08;;;;;;;11.07;8.60;;;12.70;99.90;;;;;;5028784;28;20223;-78
2023/09/16 01:01:38;;;;;;;11.87;8.10;;;12.80;99.90;;;;;;5024221;28;20205;-77
2023/09/16 01:04:06;;;;;;;9.00;7.40;;;12.70;99.90;;;;;;5025277;28;20242;-78
2023/09/16 01:06:33;;;;;;;8.83;6.30;;;12.10;99.90;;;;;;5026925;28;20235;-78
2023/09/16 01:09:00;;;;;;;9.17;6.87;;;11.80;99.90;;;;;;5024344;28;20291;-77
2023/09/16 01:11:27;;;;;;;10.37;7.33;;;11.80;99.90;;;;;;5027883;28;20224;-77
2023/09/16 01:13:55;;;;;;;9.43;7.63;;;11.90;99.90;;;;;;5029451;28;20729;-77
2023/09/16 01:16:30;;;;;;;10.00;7.53;;;12.50;99.90;;;;;;5027375;28;20204;-78
2023/09/16 01:19:01;;;;;;;11.47;8.27;;;12.40;99.90;;;;;;5026091;28;20210;-78
2023/09/16 01:21:29;;;;;;;10.90;8.10;;;12.30;99.90;;;;;;5026596;28;20386;-77
2023/09/16 01:24:16;;;;;;;8.77;7.43;;;12.40;99.90;;;;;;5028522;28;20585;-79
2023/09/16 01:26:44;;;;;;;9.73;7.50;;;12.30;99.90;;;;;;5027297;28;20203;-77
2023/09/16 01:29:13;;;;;;;10.90;7.10;;;12.30;99.90;;;;;;5030336;28;20207;-76
2023/09/16 01:31:40;;;;;;;8.60;6.53;;;12.10;99.90;;;;;;5029698;28;20211;-77
2023/09/16 01:34:13;;;;;;;9.70;7.33;;;11.90;99.90;;;;;;5029433;28;20742;-78
2023/09/16 01:36:42;;;;;;;8.83;7.03;;;11.70;99.90;;;;;;5025746;28;20623;-78
2023/09/16 01:39:10;;;;;;;9.93;7.13;;;11.80;99.90;;;;;;5026017;28;20204;-78
2023/09/16 01:41:38;;;;;;;11.43;7.30;;;11.80;99.90;;;;;;5028372;28;20229;-76
2023/09/16 01:44:07;;;;;;;9.20;6.70;;;11.80;99.90;;;;;;5027738;28;20441;-76
2023/09/16 01:46:34;;;;;;;10.17;6.40;;;11.80;99.90;;;;;;5031067;28;20332;-76
2023/09/16 01:49:00;;;;;;;7.73;6.37;;;11.70;99.90;;;;;;5024576;28;20208;-78
2023/09/16 01:51:27;;;;;;;10.57;6.70;;;11.50;99.90;;;;;;5025125;28;20710;-78
2023/09/16 01:53:54;;;;;;;8.03;6.43;;;11.60;99.90;;;;;;5031870;28;20219;-77
2023/09/16 01:56:21;;;;;;;10.23;7.37;;;11.70;99.90;;;;;;5021885;28;20282;-78
2023/09/16 01:58:48;;;;;;;12.30;7.53;;;11.70;99.90;;;;;;5024267;28;20279;-78
2023/09/16 02:01:17;;;;;;;10.67;7.57;;;11.70;99.90;;;;;;5029677;28;20203;-76
2023/09/16 02:03:43;;;;;;;11.03;7.30;;;11.70;99.90;;;;;;5032885;28;20231;-77
2023/09/16 02:06:10;;;;;;;12.10;8.07;;;11.90;99.90;;;;;;5026027;28;20216;-76
2023/09/16 02:08:37;;;;;;;12.30;9.03;;;11.80;99.90;;;;;;5024348;28;20209;-78
2023/09/16 02:11:04;;;;;;;13.90;9.50;;;11.80;99.90;;;;;;5018666;28;20202;-78
2023/09/16 02:13:32;;;;;;;15.27;10.27;;;11.80;99.90;;;;;;5024357;28;20232;-77
2023/09/16 02:15:59;;;;;;;14.47;10.00;;;11.90;99.90;;;;;;5025701;28;20210;-77
2023/09/16 02:18:27;;;;;;;13.53;10.30;;;11.90;99.90;;;;;;5027334;28;20204;-76
2023/09/16 02:20:54;;;;;;;14.37;10.40;;;12.00;99.90;;;;;;5028602;28;20203;-77
2023/09/16 02:23:21;;;;;;;15.67;9.97;;;11.90;99.90;;;;;;5024516;28;20215;-76
2023/09/16 02:25:48;;;;;;;16.07;11.07;;;12.00;99.90;;;;;;5022024;28;20873;-77
2023/09/16 02:28:15;;;;;;;13.00;9.40;;;11.90;99.90;;;;;;5023985;28;20212;-77
2023/09/16 02:30:42;;;;;;;13.43;9.37;;;11.90;99.90;;;;;;5027389;28;20208;-77
2023/09/16 02:33:09;;;;;;;12.67;9.47;;;11.80;99.90;;;;;;5029588;28;20250;-77
2023/09/16 02:35:39;;;;;;;13.80;9.63;;;11.70;99.90;;;;;;5032048;28;20202;-77
2023/09/16 02:38:06;;;;;;;13.67;9.70;;;11.70;99.90;;;;;;5026307;28;20214;-77
2023/09/16 02:40:33;;;;;;;13.87;9.47;;;11.70;99.90;;;;;;5029854;28;20405;-78
2023/09/16 02:43:00;;;;;;;12.80;9.23;;;11.90;99.90;;;;;;5025787;28;20215;-77
2023/09/16 02:45:26;;;;;;;14.70;10.00;;;11.80;99.90;;;;;;5024805;28;20204;-77
2023/09/16 02:47:53;;;;;;;11.90;9.03;;;11.70;99.90;;;;;;5027856;28;20551;-78
2023/09/16 02:50:20;;;;;;;12.43;8.67;;;11.70;99.90;;;;;;5028984;28;20200;-76
2023/09/16 02:52:48;;;;;;;12.33;8.90;;;11.60;99.90;;;;;;5031867;28;20224;-77
2023/09/16 02:55:16;;;;;;;11.97;8.77;;;11.60;99.90;;;;;;5025285;28;20208;-77
2023/09/16 02:57:43;;;;;;;11.63;8.77;;;11.50;99.90;;;;;;5022799;28;20634;-77
2023/09/16 03:00:10;;;;;;;15.73;9.10;;;11.60;99.90;;;;;;5024907;28;20201;-77
2023/09/16 03:02:37;;;;;;;13.23;8.03;;;11.70;99.90;;;;;;5027004;28;20718;-77
2023/09/16 03:05:04;;;;;;;11.93;8.17;;;11.50;99.90;;;;;;5029144;28;20220;-78
2023/09/16 03:07:31;;;;;;;9.60;7.40;;;11.40;99.90;;;;;;5032460;28;20204;-77
2023/09/16 03:09:59;;;;;;;10.87;7.40;;;11.40;99.90;;;;;;5029575;28;20202;-78
2023/09/16 03:12:26;;;;;;;8.53;6.87;;;11.20;99.90;;;;;;5021696;28;20231;-76
2023/09/16 03:14:52;;;;;;;10.00;7.40;;;11.30;99.90;;;;;;5024139;28;20208;-78
2023/09/16 03:17:19;;;;;;;9.57;7.57;;;11.20;99.90;;;;;;5029649;28;20203;-77
2023/09/16 03:19:46;;;;;;;11.50;8.00;;;11.30;99.90;;;;;;5028618;28;20210;-78
2023/09/16 03:22:13;;;;;;;11.63;7.67;;;11.40;99.90;;;;;;5033674;28;20222;-76
2023/09/16 03:24:40;;;;;;;11.17;7.80;;;11.50;99.90;;;;;;5037386;28;20287;-76
2023/09/16 03:27:08;;;;;;;12.13;7.67;;;11.40;99.90;;;;;;5035737;28;20196;-76
2023/09/16 03:29:35;;;;;;;10.70;7.40;;;11.40;99.90;;;;;;5036830;28;20199;-77
2023/09/16 03:32:01;;;;;;;12.40;8.87;;;11.30;99.90;;;;;;5036669;28;20246;-77
2023/09/16 03:34:28;;;;;;;11.57;8.47;;;11.40;99.90;;;;;;5035796;28;20230;-77
2023/09/16 03:36:55;;;;;;;10.37;7.43;;;11.40;99.90;;;;;;5034787;28;20204;-76
2023/09/16 03:39:22;;;;;;;11.50;7.60;;;11.50;99.90;;;;;;5037209;28;20196;-75
2023/09/16 03:41:49;;;;;;;10.80;8.13;;;11.30;99.90;;;;;;5033185;28;20286;-78
2023/09/16 03:44:17;;;;;;;10.53;7.37;;;11.30;99.90;;;;;;5036429;28;20227;-76
2023/09/16 03:46:44;;;;;;;10.10;7.23;;;11.40;99.90;;;;;;5036911;28;20595;-76
2023/09/16 03:49:10;;;;;;;10.27;6.83;;;11.30;99.90;;;;;;5037220;28;20299;-77
2023/09/16 03:51:38;;;;;;;10.37;7.00;;;11.40;99.90;;;;;;5034762;28;20203;-77
2023/09/16 03:54:06;;;;;;;10.60;7.47;;;11.40;99.90;;;;;;5035045;28;20226;-77
2023/09/16 03:56:33;;;;;;;10.83;8.03;;;11.40;99.90;;;;;;5033261;28;20626;-77
2023/09/16 03:59:00;;;;;;;9.67;7.40;;;11.20;99.90;;;;;;5033835;28;20196;-78
2023/09/16 04:01:28;;;;;;;11.27;7.57;;;11.10;99.90;;;;;;5036849;28;20199;-77
2023/09/16 04:03:55;;;;;;;12.60;8.43;;;11.30;99.90;;;;;;5035789;28;20251;-77
2023/09/16 04:06:22;;;;;;;11.00;8.23;;;11.10;99.90;;;;;;5032640;28;20217;-77
2023/09/16 04:08:49;;;;;;;12.70;8.43;;;11.10;99.90;;;;;;5036147;28;20203;-77
2023/09/16 04:11:15;;;;;;;12.33;8.10;;;11.20;99.90;;;;;;5036612;28;20216;-77
2023/09/16 04:13:43;;;;;;;10.77;7.80;;;11.30;99.90;;;;;;5033978;28;20230;-77
2023/09/16 04:16:11;;;;;;;12.97;9.07;;;11.20;99.90;;;;;;5035425;28;20223;-77
2023/09/16 04:18:39;;;;;;;12.47;8.27;;;11.20;99.90;;;;;;5034905;28;20330;-77
2023/09/16 04:21:06;;;;;;;10.53;7.67;;;11.10;99.90;;;;;;5033807;28;20231;-77
2023/09/16 04:23:34;;;;;;;11.47;8.17;;;11.20;99.90;;;;;;5040385;28;20212;-77
2023/09/16 04:26:02;;;;;;;10.83;8.17;;;11.20;99.90;;;;;;5038283;28;20199;-77
2023/09/16 04:28:29;;;;;;;14.17;8.73;;;11.30;99.90;;;;;;5037421;28;20207;-77
2023/09/16 04:30:56;;;;;;;12.23;8.67;;;11.30;99.90;;;;;;5040254;28;20210;-77
2023/09/16 04:33:23;;;;;;;12.27;8.57;;;11.30;99.90;;;;;;5039449;28;20273;-77
2023/09/16 04:35:52;;;;;;;15.80;9.20;;;11.10;99.90;;;;;;5036953;28;20648;-78
2023/09/16 04:38:20;;;;;;;11.13;8.37;;;11.10;99.90;;;;;;5037820;28;20204;-78
2023/09/16 04:40:47;;;;;;;11.63;8.77;;;11.10;99.90;;;;;;5038924;28;20207;-78
2023/09/16 04:43:14;;;;;;;12.97;9.30;;;11.10;99.90;;;;;;5040017;28;20235;-77
2023/09/16 04:45:44;;;;;;;12.60;8.73;;;11.10;99.90;;;;;;5038940;28;20200;-76
2023/09/16 04:48:13;;;;;;;12.80;9.17;;;11.00;99.90;;;;;;5037692;28;20211;-77
2023/09/16 04:50:41;;;;;;;13.17;8.83;;;11.10;99.90;;;;;;5039106;28;20200;-77
2023/09/16 04:53:09;;;;;;;12.13;8.73;;;11.20;99.90;;;;;;5039808;28;20605;-77
2023/09/16 04:55:36;;;;;;;12.70;9.40;;;11.20;99.90;;;;;;5039173;28;20214;-78
2023/09/16 04:58:03;;;;;;;11.80;8.13;;;11.00;99.90;;;;;;5037792;28;20195;-77
2023/09/16 05:00:33;;;;;;;15.23;9.30;;;11.00;99.90;;;;;;5033365;28;20287;-78
2023/09/16 05:03:00;;;;;;;13.77;9.07;;;11.00;99.90;;;;;;5029986;28;20311;-78
2023/09/16 05:05:26;;;;;;;12.97;8.97;;;11.10;99.90;;;;;;5038558;28;20199;-78
2023/09/16 05:07:53;;;;;;;11.40;8.43;;;11.20;99.90;;;;;;5038750;28;20287;-77
2023/09/16 05:10:22;;;;;;;13.17;8.97;;;11.10;99.90;;;;;;5030897;28;20212;-77
2023/09/16 05:12:48;;;;;;;11.30;8.77;;;11.10;99.90;;;;;;5036925;28;20230;-78
2023/09/16 05:15:15;;;;;;;12.37;9.17;;;11.10;99.90;;;;;;5038417;28;20215;-77
2023/09/16 05:17:42;;;;;;;11.30;8.57;;;11.10;99.90;;;;;;5037504;28;20676;-78
2023/09/16 05:20:09;;;;;;;12.67;8.77;;;11.10;99.90;;;;;;5037694;28;20202;-77
2023/09/16 05:22:38;;;;;;;12.63;8.57;;;11.10;99.90;;;;;;5033879;28;20216;-79
2023/09/16 05:25:05;;;;;;;14.60;8.90;;;11.20;99.90;;;;;;5035355;28;20246;-77
2023/09/16 05:27:33;;;;;;;15.23;8.97;;;11.40;99.90;;;;;;5037295;28;20191;-80
2023/09/16 05:30:01;;;;;;;13.77;8.87;;;11.50;99.90;;;;;;5036293;28;20666;-77
2023/09/16 05:32:29;;;;;;;14.40;9.23;;;11.60;99.90;;;;;;5032295;28;20219;-77
2023/09/16 05:34:56;;;;;;;13.50;9.17;;;11.70;99.90;;;;;;5035733;28;20210;-77
2023/09/16 05:37:23;;;;;;;13.30;9.00;;;11.60;99.90;;;;;;5034858;28;20204;-77
2023/09/16 05:39:49;;;;;;;14.83;9.97;;;11.60;99.90;;;;;;5029997;28;20204;-78
2023/09/16 05:42:16;;;;;;;12.23;9.73;;;11.80;99.90;;;;;;5035555;28;20203;-78
2023/09/16 05:44:44;;;;;;;14.77;9.53;;;12.00;99.90;;;;;;5033598;28;20208;-78
2023/09/16 05:47:11;;;;;;;12.13;9.00;;;12.10;99.90;;;;;;5036121;28;20585;-78
2023/09/16 05:49:38;;;;;;;14.27;10.27;;;12.20;99.90;;;;;;5035195;28;20210;-78
2023/09/16 05:52:06;;;;;;;13.50;9.47;;;12.20;99.90;;;;;;5036824;28;20291;-78
2023/09/16 05:54:33;;;;;;;14.70;10.27;;;12.20;99.90;;;;;;5033297;28;20219;-77
2023/09/16 05:57:00;;;;;;;15.30;10.30;;;12.40;99.90;;;;;;5031285;28;20689;-78
2023/09/16 05:59:27;;;;;;;12.17;9.33;;;12.40;99.90;;;;;;5035133;28;20204;-79
2023/09/16 06:01:58;;;;;;;14.63;10.23;;;12.70;99.90;;;;;;5034765;28;20203;-78
2023/09/16 06:04:25;;;;;;;16.90;9.63;;;13.20;99.90;;;;;;5029499;28;20238;-78
2023/09/16 06:06:52;;;;;;;13.10;9.37;;;13.10;99.90;;;;;;5036289;28;20230;-79
2023/09/16 06:09:19;;;;;;;13.60;9.48;;;13.20;99.90;;;;;;5038475;28;20554;-78
2023/09/16 06:11:45;;;;;;;11.20;8.67;;;13.20;99.90;;;;;;5037128;28;20230;-77
2023/09/16 06:14:12;;;;;;;12.95;9.43;;;13.10;99.90;;;;;;5033306;28;21003;-80
2023/09/16 06:16:39;;;;;;;13.57;9.53;;;13.20;99.90;;;;;;5033149;28;20203;-77
2023/09/16 06:19:07;;;;;;;13.10;9.20;;;13.20;99.90;;;;;;5033559;28;20265;-80
2023/09/16 06:21:34;;;;;;;13.00;9.73;;;13.30;99.90;;;;;;5036311;28;20200;-78
2023/09/16 06:24:01;;;;;;;14.90;9.65;;;13.50;99.90;;;;;;5036393;28;20589;-79
2023/09/16 06:26:28;;;;;;;13.05;9.38;;;13.50;99.90;;;;;;5035629;28;20282;-78
2023/09/16 06:28:57;;;;;;;14.27;10.30;;;13.60;99.90;;;;;;5035717;28;20200;-79
2023/09/16 06:31:24;;;;;;;13.13;8.93;;;13.70;99.90;;;;;;5029485;28;20199;-77
2023/09/16 06:33:52;;;;;;;12.90;9.60;;;13.80;99.90;;;;;;5034920;28;20294;-77
2023/09/16 06:36:20;;;;;;;13.27;10.10;;;14.00;99.90;;;;;;5034173;28;20206;-79
2023/09/16 06:38:47;;;;;;;11.87;9.23;;;14.00;99.90;;;;;;5033767;28;20230;-79
2023/09/16 06:41:13;;;;;;;14.20;10.50;;;14.20;99.90;;;;;;5031912;28;20741;-78
2023/09/16 06:43:40;;;;;;;15.07;10.40;;;14.20;99.90;;;;;;5032402;28;20216;-79
2023/09/16 06:46:07;;;;;;;14.70;10.00;;;14.20;99.90;;;;;;5031855;28;20208;-77
2023/09/16 06:48:34;;;;;;;14.98;10.07;;;14.30;99.90;;;;;;5032568;28;20207;-78
2023/09/16 06:51:01;;;;;;;13.48;9.85;;;14.30;99.90;;;;;;5034461;28;20214;-78
2023/09/16 06:53:31;;;;;;;16.13;10.77;;;14.30;99.90;;;;;;5027802;28;20220;-77
2023/09/16 06:55:58;;;;;;;16.00;10.68;;;14.30;99.90;;;;;;5032751;28;20237;-77
2023/09/16 06:58:25;;;;;;;13.02;10.20;;;14.40;99.90;;;;;;5030826;28;20200;-75
2023/09/16 07:00:52;;;;;;;15.27;10.68;;;14.40;99.90;;;;;;5023310;28;20214;-77
2023/09/16 07:03:19;;;;;;;14.30;10.00;;;14.40;99.90;;;;;;5035916;28;20239;-78
2023/09/16 07:05:47;;;;;;;14.10;10.30;;;14.50;99.90;;;;;;5033409;28;20214;-78
2023/09/16 07:08:14;;;;;;;14.70;10.65;;;14.50;99.90;;;;;;5031169;28;20705;-77
2023/09/16 07:10:42;;;;;;;14.13;10.27;;;14.50;99.90;;;;;;5038666;28;20211;-77
2023/09/16 07:13:09;;;;;;;14.63;10.32;;;14.80;99.90;;;;;;5030226;28;20227;-78
2023/09/16 07:15:36;;;;;;;14.50;10.43;;;14.80;99.90;;;;;;5037010;28;20612;-78
2023/09/16 07:18:04;;;;;;;15.00;11.25;;;14.80;99.90;;;;;;5035988;28;20199;-81
2023/09/16 07:20:31;;;;;;;13.00;10.13;;;14.80;99.90;;;;;;5036841;28;20204;-77
2023/09/16 07:22:58;;;;;;;15.77;11.25;;;15.00;99.90;;;;;;5036672;28;20222;-77
2023/09/16 07:25:25;;;;;;;16.90;11.50;;;15.00;99.90;;;;;;5034567;28;20204;-76
2023/09/16 07:27:53;;;;;;;15.85;11.35;;;15.00;99.90;;;;;;5035978;28;20649;-77
2023/09/16 07:30:20;;;;;;;16.13;10.82;;;15.00;99.90;;;;;;5035192;28;20202;-77
2023/09/16 07:32:47;;;;;;;15.27;11.70;;;15.10;99.90;;;;;;5039873;28;20223;-79
2023/09/16 07:35:14;;;;;;;15.43;11.00;;;15.20;99.90;;;;;;5040036;28;20464;-79
2023/09/16 07:37:41;;;;;;;14.02;11.68;;;15.30;99.90;;;;;;5038194;28;20214;-79
2023/09/16 07:40:08;;;;;;;16.73;12.38;;;15.40;99.90;;;;;;5038175;28;20195;-79
2023/09/16 07:42:36;;;;;;;15.93;11.13;;;15.40;99.90;;;;;;5037892;28;20227;-79
2023/09/16 07:45:05;;;;;;;16.27;11.20;;;15.50;99.90;;;;;;5037258;28;20579;-77
2023/09/16 07:47:32;;;;;;;14.10;11.32;;;15.60;99.90;;;;;;5035197;28;20291;-78
2023/09/16 07:49:59;;;;;;;13.52;10.57;;;15.60;99.90;;;;;;5037823;28;20263;-78
2023/09/16 07:52:26;;;;;;;12.73;10.02;;;15.60;99.90;;;;;;5033483;28;22126;-79
2023/09/16 07:54:55;;;;;;;17.95;11.13;;;15.70;99.90;;;;;;5036929;28;20310;-78
2023/09/16 07:57:22;;;;;;;13.10;10.48;;;16.00;99.90;;;;;;5038038;28;20543;-77
2023/09/16 07:59:49;;;;;;;14.80;10.90;;;16.10;99.90;;;;;;5037187;28;20238;-77
2023/09/16 08:02:17;;;;;;;12.00;9.52;;;16.00;99.90;;;;;;5035017;28;20211;-75
2023/09/16 08:04:44;;;;;;;15.73;10.82;;;16.40;99.90;;;;;;5034267;28;20219;-78
2023/09/16 08:07:11;;;;;;;14.85;10.15;;;16.30;99.90;;;;;;5035468;28;20682;-78
2023/09/16 08:09:38;;;;;;;13.13;9.27;;;16.70;99.90;;;;;;5035539;28;20291;-77
2023/09/16 08:12:05;;;;;;;12.80;8.75;;;16.50;99.90;;;;;;5035632;28;20210;-79
2023/09/16 08:14:32;;;;;;;11.45;8.77;;;16.40;99.90;;;;;;5039671;28;20224;-78
2023/09/16 08:17:03;;;;;;;13.55;8.82;;;16.60;99.90;;;;;;5034092;28;20698;-79
2023/09/16 08:19:31;;;;;;;10.43;8.50;;;16.80;99.90;;;;;;5039012;28;20200;-77
2023/09/16 08:21:58;;;;;;;12.70;9.15;;;16.90;99.90;;;;;;5034090;28;20295;-78
2023/09/16 08:24:28;;;;;;;9.93;7.80;;;17.10;99.90;;;;;;5036124;28;20211;-77
2023/09/16 08:26:55;;;;;;;10.85;8.32;;;17.10;99.90;;;;;;5029953;28;20203;-78
2023/09/16 08:29:22;;;;;;;10.63;7.72;;;17.10;99.90;;;;;;5010656;28;20205;-76
2023/09/16 08:31:48;;;;;;;11.07;7.88;;;17.20;99.90;;;;;;5013472;28;20604;-77
2023/09/16 08:34:15;;;;;;;11.73;7.95;;;17.30;99.90;;;;;;5013831;28;20246;-78
2023/09/16 08:36:43;;;;;;;8.18;7.07;;;17.50;99.90;;;;;;5010922;28;20613;-75
2023/09/16 08:39:10;;;;;;;10.25;7.03;;;17.60;99.90;;;;;;5018059;28;20204;-77
2023/09/16 08:41:42;;;;;;;9.85;7.63;;;17.60;99.90;;;;;;5012882;28;20316;-77
2023/09/16 08:44:13;;;;;;;9.50;7.60;;;17.60;99.90;;;;;;5017663;28;20215;-78
2023/09/16 08:46:44;;;;;;;10.57;7.40;;;17.80;99.90;;;;;;5030074;28;20734;-78
2023/09/16 08:49:13;;;;;;;8.60;7.00;;;17.90;99.90;;;;;;5038087;28;20267;-78
2023/09/16 08:51:47;;;;;;;10.27;7.13;;;18.00;99.90;;;;;;5038858;28;20563;-77
2023/09/16 08:54:16;;;;;;;8.18;6.88;;;18.00;99.90;;;;;;5039209;28;20254;-76
2023/09/16 08:56:44;;;;;;;8.00;6.47;;;18.20;99.90;;;;;;5034934;28;20207;-78
2023/09/16 08:59:12;;;;;;;8.15;6.13;;;18.30;99.90;;;;;;5026477;28;20287;-77
2023/09/16 09:01:39;;;;;;;8.20;6.40;;;18.50;99.90;;;;;;5025711;28;20200;-77
2023/09/16 09:04:07;;;;;;;9.63;6.68;;;18.60;99.90;;;;;;5029522;28;20286;-78
2023/09/16 09:06:34;;;;;;;6.20;5.60;;;18.80;99.90;;;;;;5025449;28;20597;-76
2023/09/16 09:09:03;;;;;;;7.60;5.82;;;19.10;99.90;;;;;;5022993;28;20586;-77
2023/09/16 09:11:31;;;;;;;7.20;5.97;;;19.30;99.90;;;;;;5028604;28;20643;-76
2023/09/16 09:14:00;;;;;;;6.78;5.97;;;19.70;99.90;;;;;;5023115;28;20232;-77
2023/09/16 09:16:29;;;;;;;8.38;5.60;;;19.80;99.90;;;;;;5026475;28;20215;-78
2023/09/16 09:18:57;;;;;;;9.25;6.07;;;19.90;99.90;;;;;;5022589;28;21473;-76
2023/09/16 09:21:25;;;;;;;7.07;5.30;;;20.40;99.90;;;;;;5022053;28;20199;-77
2023/09/16 09:23:52;;;;;;;8.57;6.00;;;20.50;99.90;;;;;;5023778;28;20221;-76
2023/09/16 09:26:21;;;;;;;5.60;4.90;;;20.60;99.90;;;;;;5037586;28;20227;-78
2023/09/16 09:28:48;;;;;;;6.55;5.70;;;20.90;99.90;;;;;;5035205;28;20203;-78
2023/09/16 09:31:15;;;;;;;7.55;6.20;;;21.10;99.90;;;;;;5037932;28;20235;-78
2023/09/16 09:33:42;;;;;;;6.93;5.95;;;21.20;99.90;;;;;;5036238;28;20310;-78
2023/09/16 09:36:13;;;;;;;6.03;5.22;;;21.40;99.90;;;;;;5029406;28;20204;-78
2023/09/16 09:38:44;;;;;;;5.55;5.03;;;21.60;99.90;;;;;;5026319;28;20258;-79
2023/09/16 09:41:12;;;;;;;7.43;5.70;;;21.50;99.90;;;;;;5023222;28;20950;-77
2023/09/16 09:43:40;;;;;;;7.03;5.60;;;21.60;99.90;;;;;;5027663;28;20297;-78
2023/09/16 09:46:07;;;;;;;7.43;5.50;;;21.60;99.90;;;;;;5028893;28;20468;-76
2023/09/16 09:48:36;;;;;;;5.82;5.30;;;21.90;99.90;;;;;;5022065;28;20558;-77
2023/09/16 09:51:03;;;;;;;7.22;5.75;;;21.90;99.90;;;;;;5017742;28;20211;-77
2023/09/16 09:53:30;;;;;;;7.03;4.97;;;22.20;99.90;;;;;;5021332;28;20224;-78
2023/09/16 09:55:57;;;;;;;7.93;5.28;;;22.40;99.90;;;;;;5021088;28;20279;-77
2023/09/16 09:58:24;;;;;;;6.97;5.25;;;22.30;99.90;;;;;;5021588;28;20204;-76
2023/09/16 10:00:53;;;;;;;6.90;5.20;;;22.00;99.90;;;;;;5026238;28;20240;-80
2023/09/16 10:03:22;;;;;;;6.15;4.82;;;22.20;99.90;;;;;;5020796;28;20285;-80
2023/09/16 10:05:49;;;;;;;6.05;4.53;;;22.50;99.90;;;;;;5021333;28;20204;-78
2023/09/16 10:08:16;;;;;;;6.13;4.65;;;22.90;99.90;;;;;;5027160;28;20214;-76
2023/09/16 10:10:46;;;;;;;5.18;4.68;;;22.60;99.90;;;;;;5026385;28;20204;-79
2023/09/16 10:13:13;;;;;;;6.03;4.60;;;22.90;99.90;;;;;;5020606;28;20590;-77
2023/09/16 10:15:40;;;;;;;5.15;4.45;;;23.00;99.90;;;;;;5019636;28;20220;-76
2023/09/16 10:18:09;;;;;;;5.70;4.47;;;23.00;99.90;;;;;;5021136;28;20210;-77
2023/09/16 10:20:38;;;;;;;5.22;4.57;;;23.30;99.90;;;;;;5020668;28;20201;-78
2023/09/16 10:23:06;;;;;;;5.90;4.60;;;23.00;99.90;;;;;;5019980;28;20215;-77
2023/09/16 10:25:33;;;;;;;8.15;5.45;;;23.20;99.90;;;;;;5023495;28;20640;-76
2023/09/16 10:28:03;;;;;;;5.55;4.22;;;23.30;99.90;;;;;;5027884;28;20203;-77
2023/09/16 10:30:31;;;;;;;6.38;4.05;;;23.20;99.90;;;;;;5022811;28;20203;-77
2023/09/16 10:32:59;;;;;;;6.80;4.38;;;23.20;99.90;;;;;;5032352;28;20227;-77
2023/09/16 10:35:28;;;;;;;4.50;4.10;;;23.20;99.90;;;;;;5020947;28;20277;-78
2023/09/16 10:37:58;;;;;;;6.55;4.70;;;23.70;99.90;;;;;;5022609;28;20313;-76
2023/09/16 10:40:26;;;;;;;5.30;4.25;;;23.70;99.90;;;;;;5022081;28;20203;-77
2023/09/16 10:42:54;;;;;;;5.10;4.35;;;23.90;99.90;;;;;;5018694;28;20219;-76
2023/09/16 10:45:22;;;;;;;5.18;4.38;;;23.60;99.90;;;;;;5020525;28;21401;-77
2023/09/16 10:47:50;;;;;;;5.20;4.63;;;23.50;99.90;;;;;;5022540;28;20203;-77
2023/09/16 10:50:18;;;;;;;4.40;4.00;;;23.60;99.90;;;;;;5028071;28;20246;-77
2023/09/16 10:52:50;;;;;;;4.30;3.90;;;23.70;99.90;;;;;;5034992;28;20628;-77
2023/09/16 10:55:25;;;;;;;4.78;4.07;;;24.00;99.90;;;;;;5031377;28;20219;-76
2023/09/16 10:57:56;;;;;;;4.60;4.20;;;24.10;99.90;;;;;;5031721;28;20294;-77
2023/09/16 11:00:28;;;;;;;4.80;4.28;;;24.10;99.90;;;;;;5030019;28;20208;-77
2023/09/16 11:02:59;;;;;;;5.20;4.60;;;24.10;99.90;;;;;;5031830;28;20245;-78
2023/09/16 11:05:26;;;;;;;5.30;4.10;;;24.00;99.90;;;;;;5032090;28;21265;-77
2023/09/16 11:07:55;;;;;;;6.60;3.97;;;24.20;99.90;;;;;;5026625;28;20684;-76
2023/09/16 11:10:22;;;;;;;5.00;4.43;;;24.10;99.90;;;;;;5032598;28;20203;-78
2023/09/16 11:12:50;;;;;;;6.53;4.65;;;23.90;99.90;;;;;;5028488;28;20219;-77
2023/09/16 11:15:17;;;;;;;5.07;4.57;;;24.00;99.90;;;;;;5026935;28;20326;-77
2023/09/16 11:17:44;;;;;;;6.22;4.53;;;23.80;99.90;;;;;;5025462;28;20210;-77
2023/09/16 11:20:12;;;;;;;6.75;4.72;;;23.80;99.90;;;;;;5028123;28;20206;-77
2023/09/16 11:22:47;;;;;;;6.10;4.22;;;24.00;99.90;;;;;;5024760;28;20235;-76
2023/09/16 11:25:15;;;;;;;4.53;4.00;;;23.90;99.90;;;;;;5025765;28;20199;-77
2023/09/16 11:27:42;;;;;;;5.13;3.95;;;24.00;99.90;;;;;;5022564;28;20210;-82
2023/09/16 11:30:14;;;;;;;4.78;4.00;;;24.20;99.90;;;;;;5023133;28;20299;-77
2023/09/16 11:32:42;;;;;;;4.30;3.90;;;24.10;99.90;;;;;;5021370;28;20314;-76
2023/09/16 11:35:10;;;;;;;4.40;3.85;;;24.00;99.90;;;;;;5021289;28;20231;-76
2023/09/16 11:37:37;;;;;;;5.07;3.80;;;24.20;99.90;;;;;;5022651;28;20211;-77
2023/09/16 11:40:10;;;;;;;6.15;4.35;;;24.90;99.90;;;;;;5023107;28;20313;-76
2023/09/16 11:42:39;;;;;;;4.10;3.50;;;24.60;99.90;;;;;;5020870;28;20232;-77
2023/09/16 11:45:07;;;;;;;4.00;3.63;;;24.60;99.90;;;;;;5024312;28;20200;-76
2023/09/16 11:47:34;;;;;;;3.60;3.30;;;24.40;99.90;;;;;;5026767;28;20212;-77
2023/09/16 11:50:01;;;;;;;4.65;3.50;;;24.60;99.90;;;;;;5024271;28;20824;-77
2023/09/16 11:52:28;;;;;;;4.53;4.00;;;24.60;99.90;;;;;;5022070;28;20904;-77
2023/09/16 11:54:55;;;;;;;13.93;4.10;;;24.70;99.90;;;;;;5022152;28;20227;-78
2023/09/16 11:57:22;;;;;;;5.75;3.70;;;24.80;99.90;;;;;;5024062;28;20289;-77
2023/09/16 11:59:51;;;;;;;7.18;3.78;;;24.70;99.90;;;;;;5021733;28;20278;-77
2023/09/16 12:02:18;;;;;;;4.32;3.55;;;24.90;99.90;;;;;;5022067;28;20211;-77
2023/09/16 12:04:46;;;;;;;3.63;3.33;;;24.90;99.90;;;;;;5028707;28;20674;-78
2023/09/16 12:07:14;;;;;;;3.70;3.40;;;24.80;99.90;;;;;;5023561;28;20196;-77
2023/09/16 12:09:41;;;;;;;3.20;2.80;;;25.50;99.90;;;;;;5021264;28;20259;-77
2023/09/16 12:12:09;;;;;;;3.67;3.38;;;25.70;99.90;;;;;;5028973;28;20208;-77
2023/09/16 12:14:37;;;;;;;7.43;3.95;;;25.10;99.90;;;;;;5032558;28;20318;-77
2023/09/16 12:17:06;;;;;;;4.40;3.10;;;24.90;99.90;;;;;;5025383;28;20265;-76
2023/09/16 12:19:34;;;;;;;10.00;3.72;;;25.20;99.90;;;;;;5029947;28;20227;-76
2023/09/16 12:22:00;;;;;;;38.60;7.20;;;25.50;99.90;;;;;;5024643;28;20214;-78
2023/09/16 12:24:28;;;;;;;7.57;3.35;;;25.50;99.90;;;;;;5020017;28;20690;-77
2023/09/16 12:26:56;;;;;;;4.57;2.80;;;25.30;99.90;;;;;;5028550;28;20573;-77
2023/09/16 12:29:23;;;;;;;4.63;3.08;;;25.50;99.90;;;;;;5029898;28;20249;-78
2023/09/16 12:31:51;;;;;;;11.07;3.67;;;25.50;99.90;;;;;;5029907;28;20208;-79
2023/09/16 12:34:19;;;;;;;4.85;3.38;;;25.50;99.90;;;;;;5028395;28;20224;-76
2023/09/16 12:36:51;;;;;;;4.53;3.08;;;25.10;99.90;;;;;;5019580;28;20586;-78
2023/09/16 12:39:19;;;;;;;6.80;3.58;;;25.20;99.90;;;;;;5023246;28;20881;-77